createdAt,value
2022-08-30T00:00:46.589Z,3.10
2022-08-30T00:05:49.696Z,1.98
2022-08-30T00:10:54.552Z,1.77
2022-08-30T00:15:57.603Z,2.70
2022-08-30T00:21:00.946Z,6.55
2022-08-30T00:26:06.067Z,2.22
2022-08-30T00:31:09.168Z,2.00
2022-08-30T00:36:11.981Z,3.58
2022-08-30T00:41:16.135Z,2.92
2022-08-30T00:46:19.423Z,4.43
2022-08-30T00:51:24.236Z,3.63
2022-08-30T00:56:29.925Z,2.38
2022-08-30T01:01:34.361Z,2.72
2022-08-30T01:06:39.899Z,2.40
2022-08-30T01:11:45.280Z,2.10
2022-08-30T01:16:48.737Z,3.88
2022-08-30T01:21:56.816Z,3.25
2022-08-30T01:27:01.130Z,2.22
2022-08-30T01:32:06.379Z,3.28
2022-08-30T01:37:09.255Z,2.70
2022-08-30T01:42:13.488Z,9.95
2022-08-30T01:47:18.169Z,3.80
2022-08-30T01:52:21.000Z,2.47
2022-08-30T01:57:26.851Z,3.00
2022-08-30T02:02:30.989Z,2.55
2022-08-30T02:07:33.885Z,2.35
2022-08-30T02:12:38.315Z,2.83
2022-08-30T02:17:42.513Z,2.85
2022-08-30T02:22:48.165Z,2.40
2022-08-30T02:27:53.729Z,2.97
2022-08-30T02:32:57.720Z,2.42
2022-08-30T02:38:00.624Z,3.20
2022-08-30T02:43:04.969Z,4.20
2022-08-30T02:48:07.779Z,3.88
2022-08-30T02:53:10.905Z,4.53
2022-08-30T02:58:20.360Z,4.05
2022-08-30T03:03:23.806Z,3.38
2022-08-30T03:08:26.912Z,2.65
2022-08-30T03:13:31.371Z,2.25
2022-08-30T03:18:34.547Z,2.75
2022-08-30T03:23:37.376Z,3.03
2022-08-30T03:28:42.633Z,3.33
2022-08-30T03:33:45.439Z,3.83
2022-08-30T03:38:48.440Z,4.43
2022-08-30T03:43:52.665Z,3.30
2022-08-30T03:49:02.638Z,4.97
2022-08-30T03:54:05.588Z,4.10
2022-08-30T03:59:10.013Z,3.70
2022-08-30T04:04:16.297Z,6.05
2022-08-30T04:09:21.532Z,3.38
2022-08-30T04:14:25.698Z,3.42
2022-08-30T04:19:28.611Z,3.55
2022-08-30T04:24:31.424Z,4.80
2022-08-30T04:29:36.434Z,4.30
2022-08-30T04:34:39.296Z,4.70
2022-08-30T04:39:42.696Z,3.80
2022-08-30T04:44:46.913Z,2.63
2022-08-30T04:49:49.779Z,4.63
2022-08-30T04:54:55.783Z,3.90
2022-08-30T04:59:59.959Z,9.15
2022-08-30T05:05:20.671Z,5.30
2022-08-30T05:10:23.684Z,7.00
2022-08-30T05:15:27.896Z,5.47
2022-08-30T05:20:31.132Z,9.93
2022-08-30T05:25:37.775Z,10.82
2022-08-30T05:30:42.269Z,10.13
2022-08-30T05:35:45.053Z,16.08
2022-08-30T05:40:47.844Z,19.98
2022-08-30T05:45:59.755Z,19.77
2022-08-30T05:51:05.131Z,24.30
2022-08-30T05:56:10.377Z,28.40
2022-08-30T06:01:26.371Z,27.20
2022-08-30T06:06:30.301Z,35.20
2022-08-30T06:11:33.258Z,31.05
2022-08-30T06:16:39.765Z,27.63
2022-08-30T06:21:44.052Z,29.10
2022-08-30T06:26:48.086Z,27.23
2022-08-30T06:31:52.577Z,29.08
2022-08-30T06:36:55.467Z,30.50
2022-08-30T06:41:58.275Z,28.42
2022-08-30T06:47:05.913Z,27.73
2022-08-30T06:52:08.744Z,21.00
2022-08-30T06:57:13.852Z,20.70
2022-08-30T07:02:18.123Z,20.30
2022-08-30T07:07:21.043Z,19.27
2022-08-30T07:12:23.849Z,17.48
2022-08-30T07:17:45.619Z,17.90
2022-08-30T07:22:48.638Z,14.20
2022-08-30T07:27:51.972Z,16.10
2022-08-30T07:32:56.137Z,14.27
2022-08-30T07:37:59.456Z,12.18
2022-08-30T07:43:02.381Z,10.27
2022-08-30T07:48:07.332Z,8.15
2022-08-30T07:53:11.311Z,6.38
2022-08-30T07:58:14.891Z,9.68
2022-08-30T08:03:19.307Z,8.05
2022-08-30T08:08:22.825Z,8.23
2022-08-30T08:13:28.049Z,7.45
2022-08-30T08:18:36.877Z,8.45
2022-08-30T08:23:39.712Z,6.80
2022-08-30T08:28:43.038Z,6.47
2022-08-30T08:33:47.564Z,5.07
2022-08-30T08:38:50.444Z,6.35
2022-08-30T08:43:53.259Z,6.30
2022-08-30T08:49:02.501Z,5.47
2022-08-30T08:54:09.528Z,6.03
2022-08-30T08:59:13.177Z,4.60
2022-08-30T09:04:21.225Z,5.32
2022-08-30T09:09:30.609Z,4.65
2022-08-30T09:14:38.832Z,3.90
2022-08-30T09:19:45.366Z,4.63
2022-08-30T09:24:50.367Z,4.85
2022-08-30T09:30:01.059Z,4.57
2022-08-30T09:35:08.603Z,4.30
2022-08-30T09:40:18.340Z,3.20
2022-08-30T09:45:32.948Z,3.85
2022-08-30T09:50:38.144Z,4.07
2022-08-30T09:55:57.293Z,3.78
2022-08-30T10:01:11.135Z,3.92
2022-08-30T10:06:28.904Z,2.90
2022-08-30T10:11:40.313Z,4.80
2022-08-30T10:16:51.308Z,4.87
2022-08-30T10:22:02.401Z,2.83
2022-08-30T10:27:10.128Z,2.80
2022-08-30T10:32:21.366Z,1.60
2022-08-30T10:37:28.002Z,2.08
2022-08-30T10:42:39.844Z,3.00
2022-08-30T10:52:57.372Z,2.90
2022-08-30T10:58:01.776Z,3.33
2022-08-30T11:03:42.695Z,3.30
2022-08-30T11:09:02.433Z,2.10
2022-08-30T11:14:07.937Z,1.90
2022-08-30T11:19:18.889Z,3.42
2022-08-30T11:24:25.726Z,2.80
2022-08-30T11:29:36.146Z,2.17
2022-08-30T11:35:00.355Z,2.85
2022-08-30T11:40:14.260Z,2.67
2022-08-30T11:45:52.294Z,2.70
2022-08-30T11:51:01.432Z,3.20
2022-08-30T11:56:12.365Z,5.63
2022-08-30T12:01:50.142Z,3.40
2022-08-30T12:06:59.953Z,3.50
2022-08-30T12:12:06.494Z,3.78
2022-08-30T12:17:36.285Z,4.93
2022-08-30T12:22:40.558Z,4.15
2022-08-30T12:27:44.846Z,4.72
2022-08-30T12:32:50.890Z,4.22
2022-08-30T12:38:00.763Z,3.55
2022-08-30T12:43:06.798Z,3.40
2022-08-30T12:48:15.194Z,4.28
2022-08-30T12:53:27.820Z,3.08
2022-08-30T12:58:39.123Z,3.13
2022-08-30T13:03:42.080Z,3.58
2022-08-30T13:08:53.222Z,3.33
2022-08-30T13:14:19.342Z,2.97
2022-08-30T13:19:37.650Z,4.07
2022-08-30T13:24:40.444Z,2.75
2022-08-30T13:29:44.594Z,2.80
2022-08-30T13:34:48.926Z,4.03
2022-08-30T13:39:51.725Z,2.92
2022-08-30T13:44:54.617Z,4.60
2022-08-30T13:49:58.884Z,4.50
2022-08-30T13:55:01.756Z,2.97
2022-08-30T14:00:12.044Z,3.58
2022-08-30T14:05:46.665Z,3.83
2022-08-30T14:10:46.889Z,4.78
2022-08-30T14:16:26.615Z,3.97
2022-08-30T14:21:16.017Z,3.42
2022-08-30T14:26:22.212Z,3.00
2022-08-30T14:31:25.808Z,3.88
2022-08-30T14:36:30.426Z,5.45
2022-08-30T14:41:33.759Z,2.63
2022-08-30T14:46:37.533Z,3.40
2022-08-30T14:51:42.767Z,4.10
2022-08-30T14:56:45.715Z,3.30
2022-08-30T15:01:48.668Z,4.72
2022-08-30T15:06:53.137Z,6.32
2022-08-30T15:11:58.755Z,3.80
2022-08-30T15:17:03.227Z,3.30
2022-08-30T15:22:09.106Z,4.35
2022-08-30T15:27:12.411Z,4.20
2022-08-30T15:32:15.223Z,4.28
2022-08-30T15:37:22.405Z,3.40
2022-08-30T15:42:25.268Z,4.30
2022-08-30T15:47:28.108Z,4.20
2022-08-30T15:52:32.658Z,4.38
2022-08-30T15:57:35.433Z,3.85
2022-08-30T16:02:38.977Z,4.57
2022-08-30T16:07:45.667Z,3.35
2022-08-30T16:12:48.449Z,3.92
2022-08-30T16:17:51.259Z,5.18
2022-08-30T16:22:55.433Z,2.55
2022-08-30T16:27:58.357Z,3.45
2022-08-30T16:33:01.153Z,2.85
2022-08-30T16:38:05.327Z,3.75
2022-08-30T16:43:08.196Z,3.05
2022-08-30T16:48:11.865Z,3.65
2022-08-30T16:53:16.214Z,2.45
2022-08-30T16:58:20.873Z,2.30
2022-08-30T17:03:25.171Z,2.15
2022-08-30T17:08:29.437Z,1.90
2022-08-30T17:13:34.029Z,5.40
2022-08-30T17:18:38.401Z,2.13
2022-08-30T17:23:42.774Z,4.78
2022-08-30T17:28:47.851Z,4.68
2022-08-30T17:33:50.711Z,3.42
2022-08-30T17:38:54.890Z,2.78
2022-08-30T17:43:57.830Z,3.03
2022-08-30T17:49:01.284Z,2.53
2022-08-30T17:54:06.180Z,3.42
2022-08-30T17:59:10.872Z,2.42
2022-08-30T18:04:19.759Z,6.55
2022-08-30T18:09:25.316Z,2.03
2022-08-30T18:14:28.125Z,4.93
2022-08-30T18:19:32.089Z,5.85
2022-08-30T18:24:36.493Z,3.00
2022-08-30T18:29:39.359Z,2.58
2022-08-30T18:34:42.914Z,5.43
2022-08-30T18:39:48.346Z,3.78
2022-08-30T18:44:53.414Z,3.25
2022-08-30T18:49:56.289Z,3.15
2022-08-30T18:55:00.459Z,3.17
2022-08-30T19:00:04.515Z,2.33
2022-08-30T19:05:08.567Z,3.47
2022-08-30T19:10:14.632Z,2.40
2022-08-30T19:15:17.762Z,3.30
2022-08-30T19:20:23.097Z,2.10
2022-08-30T19:25:27.647Z,1.75
2022-08-30T19:30:31.791Z,0.93
2022-08-30T19:35:34.596Z,1.40
2022-08-30T19:40:38.973Z,1.98
2022-08-30T19:45:41.855Z,2.22
2022-08-30T19:50:44.680Z,1.35
2022-08-30T19:55:49.026Z,2.13
2022-08-30T20:01:10.726Z,2.60
2022-08-30T20:06:16.101Z,0.60
2022-08-30T20:11:21.441Z,0.65
2022-08-30T20:16:31.016Z,1.42
2022-08-30T20:21:50.063Z,2.42
2022-08-30T20:26:54.513Z,0.80
2022-08-30T20:31:57.508Z,1.13
2022-08-30T20:37:00.397Z,0.88
2022-08-30T20:42:04.744Z,2.67
2022-08-30T20:47:07.737Z,2.45
2022-08-30T20:52:10.662Z,2.45
2022-08-30T20:57:14.912Z,2.47
2022-08-30T21:02:17.833Z,1.45
2022-08-30T21:07:20.688Z,1.33
2022-08-30T21:12:25.145Z,4.97
2022-08-30T21:17:30.142Z,3.95
2022-08-30T21:22:32.929Z,1.10
2022-08-30T21:27:37.109Z,1.70
2022-08-30T21:32:39.960Z,2.78
2022-08-30T21:37:42.760Z,1.88
2022-08-30T21:42:49.744Z,1.70
2022-08-30T21:47:52.669Z,2.47
2022-08-30T21:52:55.568Z,2.05
2022-08-30T21:57:59.757Z,3.47
2022-08-30T22:03:02.581Z,1.30
2022-08-30T22:08:05.413Z,1.55
2022-08-30T22:13:12.845Z,1.02
2022-08-30T22:18:16.391Z,2.45
2022-08-30T22:23:21.022Z,2.40
2022-08-30T22:28:25.469Z,1.90
2022-08-30T22:33:28.484Z,0.85
2022-08-30T22:38:31.321Z,1.52
2022-08-30T22:43:35.600Z,1.38
2022-08-30T22:48:40.751Z,1.92
2022-08-30T22:53:45.059Z,0.93
2022-08-30T22:58:49.769Z,2.20
2022-08-30T23:03:53.490Z,1.10
2022-08-30T23:08:56.293Z,1.85
2022-08-30T23:14:00.596Z,2.35
2022-08-30T23:19:03.519Z,1.77
2022-08-30T23:24:24.454Z,3.13
2022-08-30T23:29:46.451Z,1.52
2022-08-30T23:35:07.042Z,2.60
2022-08-30T23:40:28.924Z,2.58
2022-08-30T23:45:50.475Z,1.03
2022-08-30T23:51:10.705Z,2.55
2022-08-30T23:56:42.389Z,1.63
